sensor_id;sensor_type;location;lat;lon;timestamp;P1;durP1;ratioP1;P2;durP2;ratioP2
57389;SDS011;43217;52.694;6.214;2022-12-20T00:00:48;8.50;;;5.80;;
57389;SDS011;43217;52.694;6.214;2022-12-20T00:03:14;6.93;;;5.25;;
57389;SDS011;43217;52.694;6.214;2022-12-20T00:05:41;6.20;;;5.30;;
57389;SDS011;43217;52.694;6.214;2022-12-20T00:08:08;6.35;;;5.50;;
57389;SDS011;43217;52.694;6.214;2022-12-20T00:10:35;6.05;;;5.40;;
57389;SDS011;43217;52.694;6.214;2022-12-20T00:13:01;5.97;;;5.35;;
57389;SDS011;43217;52.694;6.214;2022-12-20T00:15:27;6.85;;;5.45;;
57389;SDS011;43217;52.694;6.214;2022-12-20T00:17:53;6.82;;;5.28;;
57389;SDS011;43217;52.694;6.214;2022-12-20T00:20:19;8.95;;;5.85;;
57389;SDS011;43217;52.694;6.214;2022-12-20T00:22:44;7.70;;;5.50;;
57389;SDS011;43217;52.694;6.214;2022-12-20T00:25:10;5.75;;;4.78;;
57389;SDS011;43217;52.694;6.214;2022-12-20T00:27:35;5.20;;;4.70;;
57389;SDS011;43217;52.694;6.214;2022-12-20T00:30:01;5.47;;;4.97;;
57389;SDS011;43217;52.694;6.214;2022-12-20T00:32:27;6.25;;;4.80;;
57389;SDS011;43217;52.694;6.214;2022-12-20T00:34:52;5.53;;;5.03;;
57389;SDS011;43217;52.694;6.214;2022-12-20T00:37:18;5.68;;;4.95;;
57389;SDS011;43217;52.694;6.214;2022-12-20T00:39:44;5.63;;;4.88;;
57389;SDS011;43217;52.694;6.214;2022-12-20T00:42:09;6.03;;;5.28;;
57389;SDS011;43217;52.694;6.214;2022-12-20T00:44:35;5.25;;;4.75;;
57389;SDS011;43217;52.694;6.214;2022-12-20T00:47:00;5.38;;;4.88;;
57389;SDS011;43217;52.694;6.214;2022-12-20T00:49:26;5.82;;;5.13;;
57389;SDS011;43217;52.694;6.214;2022-12-20T00:51:51;5.53;;;5.03;;
57389;SDS011;43217;52.694;6.214;2022-12-20T00:54:17;5.38;;;4.90;;
57389;SDS011;43217;52.694;6.214;2022-12-20T00:56:43;5.45;;;4.93;;
57389;SDS011;43217;52.694;6.214;2022-12-20T00:59:09;5.72;;;5.10;;
57389;SDS011;43217;52.694;6.214;2022-12-20T01:01:35;7.80;;;5.20;;
57389;SDS011;43217;52.694;6.214;2022-12-20T01:04:00;6.40;;;4.88;;
57389;SDS011;43217;52.694;6.214;2022-12-20T01:06:27;5.65;;;5.15;;
57389;SDS011;43217;52.694;6.214;2022-12-20T01:08:54;6.53;;;4.93;;
57389;SDS011;43217;52.694;6.214;2022-12-20T01:11:21;5.47;;;5.05;;
57389;SDS011;43217;52.694;6.214;2022-12-20T01:13:50;5.32;;;4.55;;
57389;SDS011;43217;52.694;6.214;2022-12-20T01:16:19;5.20;;;4.35;;
57389;SDS011;43217;52.694;6.214;2022-12-20T01:18:50;5.05;;;4.55;;
57389;SDS011;43217;52.694;6.214;2022-12-20T01:21:17;5.25;;;4.70;;
57389;SDS011;43217;52.694;6.214;2022-12-20T01:23:44;5.22;;;4.72;;
57389;SDS011;43217;52.694;6.214;2022-12-20T01:26:11;5.05;;;4.28;;
57389;SDS011;43217;52.694;6.214;2022-12-20T01:28:39;5.20;;;4.43;;
57389;SDS011;43217;52.694;6.214;2022-12-20T01:31:08;5.10;;;4.65;;
57389;SDS011;43217;52.694;6.214;2022-12-20T01:33:36;5.70;;;4.50;;
57389;SDS011;43217;52.694;6.214;2022-12-20T01:36:03;4.85;;;4.40;;
57389;SDS011;43217;52.694;6.214;2022-12-20T01:38:30;5.40;;;4.90;;
57389;SDS011;43217;52.694;6.214;2022-12-20T01:40:56;7.07;;;4.60;;
57389;SDS011;43217;52.694;6.214;2022-12-20T01:43:22;5.60;;;5.05;;
57389;SDS011;43217;52.694;6.214;2022-12-20T01:48:21;5.35;;;4.50;;
57389;SDS011;43217;52.694;6.214;2022-12-20T01:50:49;5.63;;;5.10;;
57389;SDS011;43217;52.694;6.214;2022-12-20T01:53:16;5.03;;;4.30;;
57389;SDS011;43217;52.694;6.214;2022-12-20T01:55:44;5.25;;;4.70;;
57389;SDS011;43217;52.694;6.214;2022-12-20T01:58:11;5.10;;;4.60;;
57389;SDS011;43217;52.694;6.214;2022-12-20T02:00:38;5.13;;;4.00;;
57389;SDS011;43217;52.694;6.214;2022-12-20T02:03:05;4.50;;;3.92;;
57389;SDS011;43217;52.694;6.214;2022-12-20T02:05:34;7.45;;;4.60;;
57389;SDS011;43217;52.694;6.214;2022-12-20T02:08:01;5.55;;;4.05;;
57389;SDS011;43217;52.694;6.214;2022-12-20T02:10:32;4.85;;;4.25;;
57389;SDS011;43217;52.694;6.214;2022-12-20T02:13:10;4.80;;;4.13;;
57389;SDS011;43217;52.694;6.214;2022-12-20T02:15:53;5.95;;;4.28;;
57389;SDS011;43217;52.694;6.214;2022-12-20T02:18:26;4.47;;;4.07;;
57389;SDS011;43217;52.694;6.214;2022-12-20T02:26:40;5.97;;;4.43;;
57389;SDS011;43217;52.694;6.214;2022-12-20T02:32:13;6.43;;;5.03;;
57389;SDS011;43217;52.694;6.214;2022-12-20T02:34:47;6.63;;;4.70;;
57389;SDS011;43217;52.694;6.214;2022-12-20T02:37:12;4.93;;;4.47;;
57389;SDS011;43217;52.694;6.214;2022-12-20T02:39:38;5.78;;;4.57;;
57389;SDS011;43217;52.694;6.214;2022-12-20T02:42:05;5.97;;;5.10;;
57389;SDS011;43217;52.694;6.214;2022-12-20T02:44:34;5.32;;;4.82;;
57389;SDS011;43217;52.694;6.214;2022-12-20T02:47:25;5.53;;;4.68;;
57389;SDS011;43217;52.694;6.214;2022-12-20T02:49:54;5.93;;;4.97;;
57389;SDS011;43217;52.694;6.214;2022-12-20T02:52:21;7.22;;;5.43;;
57389;SDS011;43217;52.694;6.214;2022-12-20T02:54:50;9.02;;;5.65;;
57389;SDS011;43217;52.694;6.214;2022-12-20T02:57:19;7.43;;;5.23;;
57389;SDS011;43217;52.694;6.214;2022-12-20T03:00:03;6.03;;;5.32;;
57389;SDS011;43217;52.694;6.214;2022-12-20T03:02:29;6.30;;;5.70;;
57389;SDS011;43217;52.694;6.214;2022-12-20T03:05:19;6.63;;;5.38;;
57389;SDS011;43217;52.694;6.214;2022-12-20T03:07:47;7.35;;;6.43;;
57389;SDS011;43217;52.694;6.214;2022-12-20T03:10:13;7.57;;;5.78;;
57389;SDS011;43217;52.694;6.214;2022-12-20T03:12:39;6.10;;;5.50;;
57389;SDS011;43217;52.694;6.214;2022-12-20T03:15:05;8.02;;;5.80;;
57389;SDS011;43217;52.694;6.214;2022-12-20T03:17:31;7.18;;;5.63;;
57389;SDS011;43217;52.694;6.214;2022-12-20T03:19:57;5.90;;;5.30;;
57389;SDS011;43217;52.694;6.214;2022-12-20T03:22:22;6.70;;;5.88;;
57389;SDS011;43217;52.694;6.214;2022-12-20T03:24:48;6.20;;;5.60;;
57389;SDS011;43217;52.694;6.214;2022-12-20T03:27:14;7.47;;;5.82;;
57389;SDS011;43217;52.694;6.214;2022-12-20T03:29:40;7.05;;;5.90;;
57389;SDS011;43217;52.694;6.214;2022-12-20T03:32:06;7.30;;;5.95;;
57389;SDS011;43217;52.694;6.214;2022-12-20T03:34:32;8.18;;;5.68;;
57389;SDS011;43217;52.694;6.214;2022-12-20T03:36:57;6.32;;;5.72;;
57389;SDS011;43217;52.694;6.214;2022-12-20T03:39:23;6.72;;;5.60;;
57389;SDS011;43217;52.694;6.214;2022-12-20T03:41:49;6.93;;;6.10;;
57389;SDS011;43217;52.694;6.214;2022-12-20T03:44:14;6.68;;;5.72;;
57389;SDS011;43217;52.694;6.214;2022-12-20T03:46:40;6.63;;;5.97;;
57389;SDS011;43217;52.694;6.214;2022-12-20T03:49:05;6.63;;;5.93;;
57389;SDS011;43217;52.694;6.214;2022-12-20T03:51:31;7.20;;;6.32;;
57389;SDS011;43217;52.694;6.214;2022-12-20T03:53:56;8.15;;;6.40;;
57389;SDS011;43217;52.694;6.214;2022-12-20T03:56:22;8.23;;;6.80;;
57389;SDS011;43217;52.694;6.214;2022-12-20T03:58:48;7.32;;;6.63;;
57389;SDS011;43217;52.694;6.214;2022-12-20T04:01:18;9.15;;;7.15;;
57389;SDS011;43217;52.694;6.214;2022-12-20T04:03:45;7.43;;;6.68;;
57389;SDS011;43217;52.694;6.214;2022-12-20T04:06:11;7.78;;;6.85;;
57389;SDS011;43217;52.694;6.214;2022-12-20T04:08:37;7.57;;;6.88;;
57389;SDS011;43217;52.694;6.214;2022-12-20T04:11:02;7.57;;;6.78;;
57389;SDS011;43217;52.694;6.214;2022-12-20T04:13:40;9.93;;;6.82;;
57389;SDS011;43217;52.694;6.214;2022-12-20T04:16:06;7.72;;;6.93;;
57389;SDS011;43217;52.694;6.214;2022-12-20T04:18:32;8.48;;;7.28;;
57389;SDS011;43217;52.694;6.214;2022-12-20T04:21:01;7.95;;;7.10;;
57389;SDS011;43217;52.694;6.214;2022-12-20T04:23:27;7.95;;;7.15;;
57389;SDS011;43217;52.694;6.214;2022-12-20T04:25:53;7.68;;;6.45;;
57389;SDS011;43217;52.694;6.214;2022-12-20T04:28:20;7.05;;;6.45;;
57389;SDS011;43217;52.694;6.214;2022-12-20T04:30:45;8.00;;;7.20;;
57389;SDS011;43217;52.694;6.214;2022-12-20T04:33:11;7.97;;;6.80;;
57389;SDS011;43217;52.694;6.214;2022-12-20T04:35:37;8.63;;;6.93;;
57389;SDS011;43217;52.694;6.214;2022-12-20T04:38:03;7.15;;;6.38;;
57389;SDS011;43217;52.694;6.214;2022-12-20T04:40:29;6.82;;;6.13;;
57389;SDS011;43217;52.694;6.214;2022-12-20T04:42:55;7.22;;;6.57;;
57389;SDS011;43217;52.694;6.214;2022-12-20T04:45:20;7.72;;;6.15;;
57389;SDS011;43217;52.694;6.214;2022-12-20T04:47:46;6.68;;;6.00;;
57389;SDS011;43217;52.694;6.214;2022-12-20T04:50:12;6.60;;;5.95;;
57389;SDS011;43217;52.694;6.214;2022-12-20T04:52:38;6.93;;;5.88;;
57389;SDS011;43217;52.694;6.214;2022-12-20T04:55:22;6.80;;;5.53;;
57389;SDS011;43217;52.694;6.214;2022-12-20T04:57:47;6.07;;;5.57;;
57389;SDS011;43217;52.694;6.214;2022-12-20T05:00:13;6.25;;;5.13;;
57389;SDS011;43217;52.694;6.214;2022-12-20T05:02:39;5.88;;;5.35;;
57389;SDS011;43217;52.694;6.214;2022-12-20T05:05:05;6.00;;;5.25;;
57389;SDS011;43217;52.694;6.214;2022-12-20T05:07:31;6.70;;;5.55;;
57389;SDS011;43217;52.694;6.214;2022-12-20T05:09:57;6.85;;;5.88;;
57389;SDS011;43217;52.694;6.214;2022-12-20T05:12:22;6.95;;;4.78;;
57389;SDS011;43217;52.694;6.214;2022-12-20T05:14:48;5.20;;;4.65;;
57389;SDS011;43217;52.694;6.214;2022-12-20T05:17:14;6.50;;;5.38;;
57389;SDS011;43217;52.694;6.214;2022-12-20T05:19:39;5.72;;;5.13;;
57389;SDS011;43217;52.694;6.214;2022-12-20T05:22:05;6.00;;;5.00;;
57389;SDS011;43217;52.694;6.214;2022-12-20T05:24:49;5.63;;;5.13;;
57389;SDS011;43217;52.694;6.214;2022-12-20T05:27:33;5.97;;;4.88;;
57389;SDS011;43217;52.694;6.214;2022-12-20T05:29:59;5.32;;;4.82;;
57389;SDS011;43217;52.694;6.214;2022-12-20T05:32:24;5.97;;;5.35;;
57389;SDS011;43217;52.694;6.214;2022-12-20T05:34:50;6.50;;;5.10;;
57389;SDS011;43217;52.694;6.214;2022-12-20T05:37:16;5.85;;;5.30;;
57389;SDS011;43217;52.694;6.214;2022-12-20T05:39:41;5.72;;;4.88;;
57389;SDS011;43217;52.694;6.214;2022-12-20T05:42:07;5.45;;;4.82;;
57389;SDS011;43217;52.694;6.214;2022-12-20T05:44:32;6.70;;;6.05;;
57389;SDS011;43217;52.694;6.214;2022-12-20T05:46:58;5.60;;;5.00;;
57389;SDS011;43217;52.694;6.214;2022-12-20T05:49:24;6.35;;;5.22;;
57389;SDS011;43217;52.694;6.214;2022-12-20T05:51:49;6.60;;;5.28;;
57389;SDS011;43217;52.694;6.214;2022-12-20T05:54:15;5.63;;;4.93;;
57389;SDS011;43217;52.694;6.214;2022-12-20T05:56:41;7.10;;;5.20;;
57389;SDS011;43217;52.694;6.214;2022-12-20T05:59:06;5.95;;;5.32;;
57389;SDS011;43217;52.694;6.214;2022-12-20T06:01:33;7.43;;;5.22;;
57389;SDS011;43217;52.694;6.214;2022-12-20T06:03:59;8.73;;;6.45;;
57389;SDS011;43217;52.694;6.214;2022-12-20T06:06:24;6.05;;;5.40;;
57389;SDS011;43217;52.694;6.214;2022-12-20T06:08:50;6.90;;;5.32;;
57389;SDS011;43217;52.694;6.214;2022-12-20T06:11:15;6.22;;;5.65;;
57389;SDS011;43217;52.694;6.214;2022-12-20T06:13:41;7.05;;;5.90;;
57389;SDS011;43217;52.694;6.214;2022-12-20T06:16:07;6.55;;;5.55;;
57389;SDS011;43217;52.694;6.214;2022-12-20T06:18:32;8.90;;;6.82;;
57389;SDS011;43217;52.694;6.214;2022-12-20T06:20:58;7.50;;;6.53;;
57389;SDS011;43217;52.694;6.214;2022-12-20T06:23:24;7.75;;;6.85;;
57389;SDS011;43217;52.694;6.214;2022-12-20T06:25:49;10.68;;;7.75;;
57389;SDS011;43217;52.694;6.214;2022-12-20T06:28:15;8.45;;;7.63;;
57389;SDS011;43217;52.694;6.214;2022-12-20T06:30:50;10.57;;;7.93;;
57389;SDS011;43217;52.694;6.214;2022-12-20T06:33:20;8.90;;;7.65;;
57389;SDS011;43217;52.694;6.214;2022-12-20T06:35:45;9.55;;;8.13;;
57389;SDS011;43217;52.694;6.214;2022-12-20T06:38:13;10.10;;;8.15;;
57389;SDS011;43217;52.694;6.214;2022-12-20T06:40:38;10.63;;;8.80;;
57389;SDS011;43217;52.694;6.214;2022-12-20T06:43:04;10.20;;;9.10;;
57389;SDS011;43217;52.694;6.214;2022-12-20T06:45:29;9.75;;;8.77;;
57389;SDS011;43217;52.694;6.214;2022-12-20T06:47:56;10.57;;;9.18;;
57389;SDS011;43217;52.694;6.214;2022-12-20T06:50:22;10.32;;;9.13;;
57389;SDS011;43217;52.694;6.214;2022-12-20T06:52:48;10.48;;;9.32;;
57389;SDS011;43217;52.694;6.214;2022-12-20T06:55:14;11.40;;;10.18;;
57389;SDS011;43217;52.694;6.214;2022-12-20T06:57:39;13.10;;;10.20;;
57389;SDS011;43217;52.694;6.214;2022-12-20T07:00:05;10.60;;;8.73;;
57389;SDS011;43217;52.694;6.214;2022-12-20T07:02:32;9.75;;;8.68;;
57389;SDS011;43217;52.694;6.214;2022-12-20T07:04:58;10.32;;;9.30;;
57389;SDS011;43217;52.694;6.214;2022-12-20T07:07:24;9.40;;;8.45;;
57389;SDS011;43217;52.694;6.214;2022-12-20T07:09:49;12.65;;;9.23;;
57389;SDS011;43217;52.694;6.214;2022-12-20T07:12:15;11.00;;;9.68;;
57389;SDS011;43217;52.694;6.214;2022-12-20T07:14:41;11.95;;;9.55;;
57389;SDS011;43217;52.694;6.214;2022-12-20T07:17:07;10.68;;;9.60;;
57389;SDS011;43217;52.694;6.214;2022-12-20T07:19:33;9.82;;;8.93;;
57389;SDS011;43217;52.694;6.214;2022-12-20T07:22:03;9.35;;;8.45;;
57389;SDS011;43217;52.694;6.214;2022-12-20T07:24:29;10.70;;;9.60;;
57389;SDS011;43217;52.694;6.214;2022-12-20T07:26:55;10.85;;;9.75;;
57389;SDS011;43217;52.694;6.214;2022-12-20T07:29:21;9.35;;;8.32;;
57389;SDS011;43217;52.694;6.214;2022-12-20T07:31:47;11.30;;;8.75;;
57389;SDS011;43217;52.694;6.214;2022-12-20T07:34:12;9.20;;;8.30;;
57389;SDS011;43217;52.694;6.214;2022-12-20T07:36:38;10.38;;;8.68;;
57389;SDS011;43217;52.694;6.214;2022-12-20T07:39:04;9.27;;;8.32;;
57389;SDS011;43217;52.694;6.214;2022-12-20T07:41:30;9.20;;;8.10;;
57389;SDS011;43217;52.694;6.214;2022-12-20T07:43:55;10.77;;;7.40;;
57389;SDS011;43217;52.694;6.214;2022-12-20T07:46:23;8.60;;;7.75;;
57389;SDS011;43217;52.694;6.214;2022-12-20T07:48:49;8.43;;;7.63;;
57389;SDS011;43217;52.694;6.214;2022-12-20T07:51:57;8.30;;;7.25;;
57389;SDS011;43217;52.694;6.214;2022-12-20T07:54:08;8.13;;;7.22;;
57389;SDS011;43217;52.694;6.214;2022-12-20T07:56:42;8.68;;;7.13;;
57389;SDS011;43217;52.694;6.214;2022-12-20T07:59:11;8.35;;;7.47;;
57389;SDS011;43217;52.694;6.214;2022-12-20T08:01:40;9.68;;;6.53;;
57389;SDS011;43217;52.694;6.214;2022-12-20T08:04:09;7.43;;;6.13;;
57389;SDS011;43217;52.694;6.214;2022-12-20T08:06:39;7.03;;;6.28;;
57389;SDS011;43217;52.694;6.214;2022-12-20T08:09:06;7.75;;;6.90;;
57389;SDS011;43217;52.694;6.214;2022-12-20T08:11:34;7.60;;;6.30;;
57389;SDS011;43217;52.694;6.214;2022-12-20T08:14:01;6.43;;;5.70;;
57389;SDS011;43217;52.694;6.214;2022-12-20T08:16:28;6.55;;;5.68;;
57389;SDS011;43217;52.694;6.214;2022-12-20T08:18:55;7.32;;;5.82;;
57389;SDS011;43217;52.694;6.214;2022-12-20T08:21:21;6.97;;;5.85;;
57389;SDS011;43217;52.694;6.214;2022-12-20T08:23:47;6.75;;;5.90;;
57389;SDS011;43217;52.694;6.214;2022-12-20T08:26:12;5.88;;;5.30;;
57389;SDS011;43217;52.694;6.214;2022-12-20T08:28:38;7.22;;;5.57;;
57389;SDS011;43217;52.694;6.214;2022-12-20T08:31:05;6.53;;;5.47;;
57389;SDS011;43217;52.694;6.214;2022-12-20T08:33:32;6.65;;;5.00;;
57389;SDS011;43217;52.694;6.214;2022-12-20T08:35:59;5.22;;;4.72;;
57389;SDS011;43217;52.694;6.214;2022-12-20T08:38:30;5.78;;;5.00;;
57389;SDS011;43217;52.694;6.214;2022-12-20T08:41:09;5.03;;;4.45;;
57389;SDS011;43217;52.694;6.214;2022-12-20T08:43:36;5.00;;;4.50;;
57389;SDS011;43217;52.694;6.214;2022-12-20T08:46:03;6.15;;;4.30;;
57389;SDS011;43217;52.694;6.214;2022-12-20T08:50:57;5.68;;;4.53;;
57389;SDS011;43217;52.694;6.214;2022-12-20T08:53:25;5.88;;;4.40;;
57389;SDS011;43217;52.694;6.214;2022-12-20T08:55:52;5.57;;;4.40;;
57389;SDS011;43217;52.694;6.214;2022-12-20T08:58:18;5.75;;;4.13;;
57389;SDS011;43217;52.694;6.214;2022-12-20T09:00:45;6.22;;;4.40;;
57389;SDS011;43217;52.694;6.214;2022-12-20T09:03:11;4.88;;;4.28;;
57389;SDS011;43217;52.694;6.214;2022-12-20T09:05:47;4.63;;;4.22;;
57389;SDS011;43217;52.694;6.214;2022-12-20T09:08:13;7.28;;;4.78;;
57389;SDS011;43217;52.694;6.214;2022-12-20T09:10:40;5.30;;;4.43;;
57389;SDS011;43217;52.694;6.214;2022-12-20T09:13:06;5.75;;;4.88;;
57389;SDS011;43217;52.694;6.214;2022-12-20T09:15:33;6.65;;;4.78;;
57389;SDS011;43217;52.694;6.214;2022-12-20T09:17:59;6.13;;;4.28;;
57389;SDS011;43217;52.694;6.214;2022-12-20T09:20:25;6.40;;;4.88;;
57389;SDS011;43217;52.694;6.214;2022-12-20T09:22:51;7.60;;;5.43;;
57389;SDS011;43217;52.694;6.214;2022-12-20T09:25:17;5.93;;;5.00;;
57389;SDS011;43217;52.694;6.214;2022-12-20T09:27:43;6.18;;;4.95;;
57389;SDS011;43217;52.694;6.214;2022-12-20T09:30:09;5.93;;;4.90;;
57389;SDS011;43217;52.694;6.214;2022-12-20T09:32:35;6.32;;;4.63;;
57389;SDS011;43217;52.694;6.214;2022-12-20T09:35:01;7.43;;;5.10;;
57389;SDS011;43217;52.694;6.214;2022-12-20T09:37:30;6.70;;;5.00;;
57389;SDS011;43217;52.694;6.214;2022-12-20T09:39:57;7.18;;;4.90;;
57389;SDS011;43217;52.694;6.214;2022-12-20T09:42:26;5.68;;;5.10;;
57389;SDS011;43217;52.694;6.214;2022-12-20T09:44:59;5.68;;;4.70;;
57389;SDS011;43217;52.694;6.214;2022-12-20T09:47:29;5.68;;;5.10;;
57389;SDS011;43217;52.694;6.214;2022-12-20T09:49:57;6.65;;;5.00;;
57389;SDS011;43217;52.694;6.214;2022-12-20T09:57:46;7.72;;;5.15;;
57389;SDS011;43217;52.694;6.214;2022-12-20T10:00:26;5.72;;;5.20;;
57389;SDS011;43217;52.694;6.214;2022-12-20T10:02:52;7.10;;;5.28;;
57389;SDS011;43217;52.694;6.214;2022-12-20T10:05:24;6.82;;;5.55;;
57389;SDS011;43217;52.694;6.214;2022-12-20T10:13:19;7.85;;;5.55;;
57389;SDS011;43217;52.694;6.214;2022-12-20T10:16:04;7.70;;;5.30;;
57389;SDS011;43217;52.694;6.214;2022-12-20T10:18:49;7.18;;;5.50;;
57389;SDS011;43217;52.694;6.214;2022-12-20T10:24:44;7.22;;;5.50;;
57389;SDS011;43217;52.694;6.214;2022-12-20T10:27:19;5.88;;;5.18;;
57389;SDS011;43217;52.694;6.214;2022-12-20T10:29:46;7.68;;;5.20;;
57389;SDS011;43217;52.694;6.214;2022-12-20T10:32:17;7.82;;;5.78;;
57389;SDS011;43217;52.694;6.214;2022-12-20T10:34:56;6.20;;;5.60;;
57389;SDS011;43217;52.694;6.214;2022-12-20T10:37:55;8.48;;;5.93;;
57389;SDS011;43217;52.694;6.214;2022-12-20T10:40:24;8.93;;;5.72;;
57389;SDS011;43217;52.694;6.214;2022-12-20T10:42:52;7.57;;;5.25;;
57389;SDS011;43217;52.694;6.214;2022-12-20T10:47:44;8.07;;;6.18;;
57389;SDS011;43217;52.694;6.214;2022-12-20T10:50:17;9.80;;;6.72;;
57389;SDS011;43217;52.694;6.214;2022-12-20T10:52:45;11.30;;;6.30;;
57389;SDS011;43217;52.694;6.214;2022-12-20T10:55:39;7.60;;;6.40;;
57389;SDS011;43217;52.694;6.214;2022-12-20T10:58:20;6.75;;;6.00;;
57389;SDS011;43217;52.694;6.214;2022-12-20T11:01:10;8.05;;;6.72;;
57389;SDS011;43217;52.694;6.214;2022-12-20T11:06:22;10.15;;;6.75;;
57389;SDS011;43217;52.694;6.214;2022-12-20T11:08:51;7.25;;;6.28;;
57389;SDS011;43217;52.694;6.214;2022-12-20T11:11:18;11.02;;;6.40;;
57389;SDS011;43217;52.694;6.214;2022-12-20T11:13:49;7.93;;;6.80;;
57389;SDS011;43217;52.694;6.214;2022-12-20T11:22:02;6.90;;;5.75;;
57389;SDS011;43217;52.694;6.214;2022-12-20T11:30:22;8.63;;;6.57;;
57389;SDS011;43217;52.694;6.214;2022-12-20T11:33:20;6.53;;;5.88;;
57389;SDS011;43217;52.694;6.214;2022-12-20T11:36:01;8.23;;;5.75;;
57389;SDS011;43217;52.694;6.214;2022-12-20T11:38:41;7.75;;;5.75;;
57389;SDS011;43217;52.694;6.214;2022-12-20T11:54:13;7.25;;;6.55;;
57389;SDS011;43217;52.694;6.214;2022-12-20T11:57:01;8.40;;;6.38;;
57389;SDS011;43217;52.694;6.214;2022-12-20T11:59:40;8.55;;;6.07;;
57389;SDS011;43217;52.694;6.214;2022-12-20T12:02:12;10.18;;;6.80;;
57389;SDS011;43217;52.694;6.214;2022-12-20T12:04:53;7.03;;;6.35;;
57389;SDS011;43217;52.694;6.214;2022-12-20T12:07:27;9.60;;;7.10;;
57389;SDS011;43217;52.694;6.214;2022-12-20T12:15:33;7.88;;;6.93;;
57389;SDS011;43217;52.694;6.214;2022-12-20T12:26:33;8.38;;;7.57;;
57389;SDS011;43217;52.694;6.214;2022-12-20T12:29:21;7.72;;;6.93;;
57389;SDS011;43217;52.694;6.214;2022-12-20T12:31:57;8.38;;;7.40;;
57389;SDS011;43217;52.694;6.214;2022-12-20T12:47:54;8.73;;;6.78;;
57389;SDS011;43217;52.694;6.214;2022-12-20T12:50:26;8.07;;;7.32;;
57389;SDS011;43217;52.694;6.214;2022-12-20T12:53:31;8.13;;;7.30;;
57389;SDS011;43217;52.694;6.214;2022-12-20T12:59:39;8.52;;;7.55;;
57389;SDS011;43217;52.694;6.214;2022-12-20T13:07:45;9.30;;;8.32;;
57389;SDS011;43217;52.694;6.214;2022-12-20T13:17:59;8.98;;;8.07;;
57389;SDS011;43217;52.694;6.214;2022-12-20T13:20:41;9.55;;;8.43;;
57389;SDS011;43217;52.694;6.214;2022-12-20T13:25:33;9.48;;;8.57;;
57389;SDS011;43217;52.694;6.214;2022-12-20T13:30:40;10.95;;;9.85;;
57389;SDS011;43217;52.694;6.214;2022-12-20T13:43:44;9.73;;;8.77;;
57389;SDS011;43217;52.694;6.214;2022-12-20T13:46:13;9.52;;;8.73;;
57389;SDS011;43217;52.694;6.214;2022-12-20T13:51:25;13.00;;;11.70;;
57389;SDS011;43217;52.694;6.214;2022-12-20T13:58:53;18.77;;;14.02;;
57389;SDS011;43217;52.694;6.214;2022-12-20T14:01:22;14.82;;;10.93;;
57389;SDS011;43217;52.694;6.214;2022-12-20T14:03:49;11.88;;;9.55;;
57389;SDS011;43217;52.694;6.214;2022-12-20T14:06:17;11.93;;;10.45;;
57389;SDS011;43217;52.694;6.214;2022-12-20T14:08:45;11.98;;;10.77;;
57389;SDS011;43217;52.694;6.214;2022-12-20T14:11:17;12.77;;;11.57;;
57389;SDS011;43217;52.694;6.214;2022-12-20T14:13:54;12.90;;;11.57;;
57389;SDS011;43217;52.694;6.214;2022-12-20T14:16:21;12.18;;;11.07;;
57389;SDS011;43217;52.694;6.214;2022-12-20T14:18:48;12.40;;;11.20;;
57389;SDS011;43217;52.694;6.214;2022-12-20T14:21:15;12.32;;;11.07;;
57389;SDS011;43217;52.694;6.214;2022-12-20T14:23:43;13.10;;;11.82;;
57389;SDS011;43217;52.694;6.214;2022-12-20T14:26:16;13.38;;;12.20;;
57389;SDS011;43217;52.694;6.214;2022-12-20T14:28:48;12.50;;;11.40;;
57389;SDS011;43217;52.694;6.214;2022-12-20T14:31:21;14.20;;;12.80;;
57389;SDS011;43217;52.694;6.214;2022-12-20T14:34:00;15.15;;;12.98;;
57389;SDS011;43217;52.694;6.214;2022-12-20T14:36:34;13.43;;;12.10;;
57389;SDS011;43217;52.694;6.214;2022-12-20T14:44:32;13.93;;;12.63;;
57389;SDS011;43217;52.694;6.214;2022-12-20T14:47:14;15.43;;;13.55;;
57389;SDS011;43217;52.694;6.214;2022-12-20T14:49:50;14.63;;;13.20;;
57389;SDS011;43217;52.694;6.214;2022-12-20T14:57:44;15.23;;;13.65;;
57389;SDS011;43217;52.694;6.214;2022-12-20T15:13:37;14.60;;;13.10;;
57389;SDS011;43217;52.694;6.214;2022-12-20T15:16:14;15.43;;;14.00;;
57389;SDS011;43217;52.694;6.214;2022-12-20T15:18:40;14.57;;;13.07;;
57389;SDS011;43217;52.694;6.214;2022-12-20T15:21:09;15.30;;;13.80;;
57389;SDS011;43217;52.694;6.214;2022-12-20T15:23:51;14.60;;;13.10;;
57389;SDS011;43217;52.694;6.214;2022-12-20T15:26:19;15.38;;;13.93;;
57389;SDS011;43217;52.694;6.214;2022-12-20T15:28:50;16.63;;;15.10;;
57389;SDS011;43217;52.694;6.214;2022-12-20T15:31:17;15.30;;;13.77;;
57389;SDS011;43217;52.694;6.214;2022-12-20T15:33:47;14.43;;;13.13;;
57389;SDS011;43217;52.694;6.214;2022-12-20T15:36:16;14.50;;;13.15;;
57389;SDS011;43217;52.694;6.214;2022-12-20T15:38:46;14.73;;;13.27;;
57389;SDS011;43217;52.694;6.214;2022-12-20T15:41:29;14.07;;;12.77;;
57389;SDS011;43217;52.694;6.214;2022-12-20T15:43:58;15.23;;;13.73;;
57389;SDS011;43217;52.694;6.214;2022-12-20T15:46:30;14.73;;;13.38;;
57389;SDS011;43217;52.694;6.214;2022-12-20T15:48:56;13.85;;;12.55;;
57389;SDS011;43217;52.694;6.214;2022-12-20T15:53:51;13.95;;;12.70;;
57389;SDS011;43217;52.694;6.214;2022-12-20T15:56:18;14.27;;;12.88;;
57389;SDS011;43217;52.694;6.214;2022-12-20T15:58:45;17.08;;;15.38;;
57389;SDS011;43217;52.694;6.214;2022-12-20T16:01:13;15.73;;;14.18;;
57389;SDS011;43217;52.694;6.214;2022-12-20T16:03:42;15.18;;;13.77;;
57389;SDS011;43217;52.694;6.214;2022-12-20T16:06:11;14.70;;;13.30;;
57389;SDS011;43217;52.694;6.214;2022-12-20T16:08:37;15.07;;;13.57;;
57389;SDS011;43217;52.694;6.214;2022-12-20T16:11:04;15.40;;;13.93;;
57389;SDS011;43217;52.694;6.214;2022-12-20T16:13:31;14.93;;;13.48;;
57389;SDS011;43217;52.694;6.214;2022-12-20T16:15:59;15.52;;;14.13;;
57389;SDS011;43217;52.694;6.214;2022-12-20T16:18:24;16.85;;;15.15;;
57389;SDS011;43217;52.694;6.214;2022-12-20T16:20:50;16.85;;;15.27;;
57389;SDS011;43217;52.694;6.214;2022-12-20T16:23:18;16.90;;;15.30;;
57389;SDS011;43217;52.694;6.214;2022-12-20T16:25:47;19.10;;;17.30;;
57389;SDS011;43217;52.694;6.214;2022-12-20T16:28:14;19.67;;;15.73;;
57389;SDS011;43217;52.694;6.214;2022-12-20T16:30:40;18.73;;;16.92;;
57389;SDS011;43217;52.694;6.214;2022-12-20T16:33:10;19.85;;;17.95;;
57389;SDS011;43217;52.694;6.214;2022-12-20T16:35:43;20.52;;;18.55;;
57389;SDS011;43217;52.694;6.214;2022-12-20T16:38:09;21.92;;;19.63;;
57389;SDS011;43217;52.694;6.214;2022-12-20T16:40:34;20.92;;;18.83;;
57389;SDS011;43217;52.694;6.214;2022-12-20T16:43:00;24.20;;;21.83;;
57389;SDS011;43217;52.694;6.214;2022-12-20T16:45:28;25.52;;;22.25;;
57389;SDS011;43217;52.694;6.214;2022-12-20T16:47:55;23.42;;;21.13;;
57389;SDS011;43217;52.694;6.214;2022-12-20T16:50:22;23.73;;;21.45;;
57389;SDS011;43217;52.694;6.214;2022-12-20T16:52:49;26.58;;;22.73;;
57389;SDS011;43217;52.694;6.214;2022-12-20T16:55:19;25.02;;;22.33;;
57389;SDS011;43217;52.694;6.214;2022-12-20T16:57:51;24.98;;;22.42;;
57389;SDS011;43217;52.694;6.214;2022-12-20T17:02:50;28.75;;;25.05;;
57389;SDS011;43217;52.694;6.214;2022-12-20T17:05:27;32.53;;;24.30;;
57389;SDS011;43217;52.694;6.214;2022-12-20T17:07:57;34.60;;;26.42;;
57389;SDS011;43217;52.694;6.214;2022-12-20T17:10:24;32.30;;;26.10;;
57389;SDS011;43217;52.694;6.214;2022-12-20T17:12:51;37.08;;;27.08;;
57389;SDS011;43217;52.694;6.214;2022-12-20T17:15:19;37.15;;;29.02;;
57389;SDS011;43217;52.694;6.214;2022-12-20T17:17:47;44.38;;;31.95;;
57389;SDS011;43217;52.694;6.214;2022-12-20T17:20:14;42.03;;;30.60;;
57389;SDS011;43217;52.694;6.214;2022-12-20T17:22:40;105.30;;;67.30;;
57389;SDS011;43217;52.694;6.214;2022-12-20T17:25:12;43.15;;;30.42;;